createdAt,value
2023-06-13T00:00:20.755Z,15.92
2023-06-13T00:02:49.731Z,15.94
2023-06-13T00:05:22.210Z,15.99
2023-06-13T00:07:52.500Z,16.06
2023-06-13T00:10:21.416Z,16.09
2023-06-13T00:12:53.130Z,16.12
2023-06-13T00:15:22.088Z,16.14
2023-06-13T00:17:51.007Z,16.16
2023-06-13T00:20:20.143Z,16.17
2023-06-13T00:22:50.128Z,16.17
2023-06-13T00:25:19.095Z,16.20
2023-06-13T00:27:50.570Z,16.20
2023-06-13T00:30:19.488Z,16.18
2023-06-13T00:32:49.509Z,16.16
2023-06-13T00:35:18.855Z,16.17
2023-06-13T00:37:48.371Z,16.20
2023-06-13T00:40:17.663Z,16.25
2023-06-13T00:42:46.789Z,16.32
2023-06-13T00:45:21.778Z,16.39
2023-06-13T00:47:53.089Z,16.43
2023-06-13T00:50:23.114Z,16.45
2023-06-13T00:52:52.668Z,16.44
2023-06-13T00:55:23.064Z,16.41
2023-06-13T00:57:54.536Z,16.37
2023-06-13T01:00:27.828Z,16.33
2023-06-13T01:02:58.745Z,16.28
2023-06-13T01:05:29.454Z,16.23
2023-06-13T01:08:00.018Z,16.19
2023-06-13T01:10:29.561Z,16.15
2023-06-13T01:13:16.109Z,16.09
2023-06-13T01:15:49.255Z,16.01
2023-06-13T01:18:26.193Z,15.95
2023-06-13T01:20:57.542Z,15.87
2023-06-13T01:23:38.043Z,15.81
2023-06-13T01:26:15.043Z,15.74
2023-06-13T01:28:45.785Z,15.68
2023-06-13T01:31:16.263Z,15.61
2023-06-13T01:33:47.756Z,15.56
2023-06-13T01:36:16.821Z,15.52
2023-06-13T01:38:45.839Z,15.46
2023-06-13T01:41:15.487Z,15.41
2023-06-13T01:43:44.470Z,15.34
2023-06-13T01:46:21.411Z,15.29
2023-06-13T01:48:57.234Z,15.24
2023-06-13T01:51:31.331Z,15.18
2023-06-13T01:54:04.441Z,15.16
2023-06-13T01:56:34.272Z,15.13
2023-06-13T01:59:05.968Z,15.10
2023-06-13T02:01:37.289Z,15.06
2023-06-13T02:04:06.718Z,15.02
2023-06-13T02:06:56.342Z,14.97
2023-06-13T02:09:25.284Z,14.96
2023-06-13T02:11:54.214Z,14.97
2023-06-13T02:14:24.239Z,15.03
2023-06-13T02:16:53.553Z,15.09
2023-06-13T02:19:22.904Z,15.20
2023-06-13T02:21:52.735Z,15.38
2023-06-13T02:24:21.738Z,15.58
2023-06-13T02:26:52.019Z,15.78
2023-06-13T02:29:21.932Z,15.91
2023-06-13T02:31:51.181Z,16.05
2023-06-13T02:34:20.728Z,16.19
2023-06-13T02:36:49.632Z,16.28
2023-06-13T02:39:19.324Z,16.35
2023-06-13T02:41:48.481Z,16.40
2023-06-13T02:44:17.535Z,16.43
2023-06-13T02:46:46.622Z,16.44
2023-06-13T02:49:16.193Z,16.44
2023-06-13T02:51:45.200Z,16.42
2023-06-13T02:54:14.221Z,16.40
2023-06-13T02:56:43.186Z,16.38
2023-06-13T02:59:12.261Z,16.36
2023-06-13T03:01:41.434Z,16.33
2023-06-13T03:04:12.534Z,16.31
2023-06-13T03:06:42.321Z,16.28
2023-06-13T03:09:12.225Z,16.23
2023-06-13T03:11:41.609Z,16.16
2023-06-13T03:14:10.715Z,16.12
2023-06-13T03:16:40.413Z,16.09
2023-06-13T03:19:09.492Z,16.05
2023-06-13T03:21:38.497Z,16.02
2023-06-13T03:24:08.634Z,15.97
2023-06-13T03:26:39.543Z,15.94
2023-06-13T03:29:12.654Z,15.92
2023-06-13T03:31:42.298Z,15.89
2023-06-13T03:34:11.568Z,15.86
2023-06-13T03:36:40.926Z,15.84
2023-06-13T03:39:10.635Z,15.84
2023-06-13T03:41:39.697Z,15.84
2023-06-13T03:44:08.985Z,15.86
2023-06-13T03:46:38.148Z,15.83
2023-06-13T03:49:07.349Z,15.80
2023-06-13T03:51:36.970Z,15.80
2023-06-13T03:54:06.060Z,15.80
2023-06-13T03:56:35.091Z,15.80
2023-06-13T03:59:04.248Z,15.79
2023-06-13T04:01:33.284Z,15.81
2023-06-13T04:04:02.553Z,15.81
2023-06-13T04:06:31.757Z,15.83
2023-06-13T04:09:00.840Z,15.83
2023-06-13T04:11:33.463Z,15.80
2023-06-13T04:14:03.135Z,15.77
2023-06-13T04:16:32.025Z,15.76
2023-06-13T04:19:04.296Z,15.77
2023-06-13T04:21:33.226Z,15.80
2023-06-13T04:24:02.307Z,15.82
2023-06-13T04:26:32.192Z,15.87
2023-06-13T04:29:02.844Z,15.90
2023-06-13T04:31:48.449Z,15.90
2023-06-13T04:34:19.388Z,15.89
2023-06-13T04:36:48.731Z,15.89
2023-06-13T04:39:18.468Z,15.91
2023-06-13T04:41:50.027Z,15.94
2023-06-13T04:44:19.129Z,15.97
2023-06-13T04:46:51.370Z,16.01
2023-06-13T04:49:20.378Z,16.05
2023-06-13T04:51:50.540Z,16.10
2023-06-13T04:54:20.452Z,16.15
2023-06-13T04:56:50.358Z,16.18
2023-06-13T04:59:21.281Z,16.21
2023-06-13T05:01:50.708Z,16.24
2023-06-13T05:04:20.485Z,16.25
2023-06-13T05:06:49.333Z,16.27
2023-06-13T05:09:18.913Z,16.32
2023-06-13T05:11:48.077Z,16.37
2023-06-13T05:14:17.238Z,16.40
2023-06-13T05:16:48.632Z,16.41
2023-06-13T05:19:18.734Z,16.41
2023-06-13T05:21:48.521Z,16.41
2023-06-13T05:24:18.308Z,16.42
2023-06-13T05:26:47.598Z,16.45
2023-06-13T05:29:16.598Z,16.48
2023-06-13T05:31:47.194Z,16.52
2023-06-13T05:34:32.671Z,16.56
2023-06-13T05:37:03.317Z,16.61
2023-06-13T05:39:32.283Z,16.70
2023-06-13T05:42:01.355Z,16.78
2023-06-13T05:44:30.706Z,16.85
2023-06-13T05:46:59.615Z,16.94
2023-06-13T05:49:28.554Z,17.04
2023-06-13T05:51:58.300Z,17.12
2023-06-13T05:54:27.200Z,17.23
2023-06-13T05:56:56.310Z,17.33
2023-06-13T05:59:25.342Z,17.42
2023-06-13T06:01:54.675Z,17.51
2023-06-13T06:04:24.249Z,17.59
2023-06-13T06:06:54.078Z,17.67
2023-06-13T06:09:24.707Z,17.75
2023-06-13T06:11:54.845Z,17.83
2023-06-13T06:14:24.035Z,17.90
2023-06-13T06:16:53.059Z,17.99
2023-06-13T06:19:22.218Z,18.07
2023-06-13T06:21:51.285Z,18.16
2023-06-13T06:24:20.155Z,18.23
2023-06-13T06:26:49.344Z,18.33
2023-06-13T06:29:18.265Z,18.42
2023-06-13T06:31:47.148Z,18.54
2023-06-13T06:34:16.203Z,18.66
2023-06-13T06:36:45.284Z,18.76
2023-06-13T06:39:14.589Z,18.86
2023-06-13T06:41:43.488Z,18.99
2023-06-13T06:44:12.362Z,19.22
2023-06-13T06:46:41.459Z,19.41
2023-06-13T06:49:10.590Z,19.51
2023-06-13T06:51:39.695Z,19.61
2023-06-13T06:54:08.661Z,19.70
2023-06-13T06:56:37.926Z,19.78
2023-06-13T06:59:06.873Z,19.87
2023-06-13T07:01:36.561Z,19.99
2023-06-13T07:04:05.969Z,20.11
2023-06-13T07:06:35.099Z,20.18
2023-06-13T07:09:04.156Z,20.25
2023-06-13T07:11:33.060Z,20.31
2023-06-13T07:14:01.923Z,20.39
2023-06-13T07:16:31.000Z,20.45
2023-06-13T07:19:00.039Z,20.52
2023-06-13T07:21:30.226Z,20.59
2023-06-13T07:24:07.743Z,20.66
2023-06-13T07:26:37.673Z,20.73
2023-06-13T07:29:06.630Z,20.80
2023-06-13T07:31:35.656Z,20.91
2023-06-13T07:34:06.500Z,21.00
2023-06-13T07:36:38.937Z,21.05
2023-06-13T07:39:14.385Z,21.10
2023-06-13T07:41:45.920Z,21.15
2023-06-13T07:44:14.980Z,21.17
2023-06-13T07:46:44.305Z,21.23
2023-06-13T07:49:13.250Z,21.25
2023-06-13T07:51:42.364Z,21.27
2023-06-13T07:54:11.286Z,21.32
2023-06-13T07:56:40.398Z,21.41
2023-06-13T07:59:09.316Z,21.43
2023-06-13T08:01:38.334Z,21.44
2023-06-13T08:04:07.504Z,21.41
2023-06-13T08:06:36.632Z,21.39
2023-06-13T08:09:10.203Z,21.40
2023-06-13T08:11:39.695Z,21.41
2023-06-13T08:14:09.796Z,21.45
2023-06-13T08:16:39.332Z,21.50
2023-06-13T08:19:08.339Z,21.54
2023-06-13T08:21:37.281Z,21.60
2023-06-13T08:24:06.846Z,21.67
2023-06-13T08:26:35.792Z,21.74
2023-06-13T08:29:04.800Z,21.81
2023-06-13T08:34:11.201Z,21.94
2023-06-13T08:36:42.098Z,22.03
2023-06-13T08:39:11.126Z,22.07
2023-06-13T08:41:40.667Z,22.11
2023-06-13T08:44:09.693Z,22.21
2023-06-13T08:46:39.010Z,22.25
2023-06-13T08:49:08.044Z,22.29
2023-06-13T08:51:38.141Z,22.34
2023-06-13T08:54:09.073Z,22.37
2023-06-13T08:56:44.899Z,22.37
2023-06-13T08:59:16.934Z,22.47
2023-06-13T09:01:46.415Z,22.52
2023-06-13T09:04:18.332Z,22.60
2023-06-13T09:06:47.303Z,22.65
2023-06-13T09:09:18.565Z,22.74
2023-06-13T09:11:51.809Z,22.76
2023-06-13T09:14:21.520Z,22.76
2023-06-13T09:16:52.521Z,22.80
2023-06-13T09:19:21.742Z,22.89
2023-06-13T09:21:51.503Z,23.02
2023-06-13T09:24:21.303Z,23.07
2023-06-13T09:26:50.682Z,23.14
2023-06-13T09:29:27.218Z,23.22
2023-06-13T09:32:12.387Z,23.33
2023-06-13T09:34:43.035Z,23.44
2023-06-13T09:37:13.151Z,23.57
2023-06-13T09:39:50.952Z,23.69
2023-06-13T09:42:25.179Z,23.84
2023-06-13T09:44:58.887Z,24.05
2023-06-13T09:47:28.953Z,24.22
2023-06-13T09:49:59.136Z,24.32
2023-06-13T09:52:29.867Z,24.37
2023-06-13T09:54:59.093Z,24.42
2023-06-13T09:57:41.602Z,24.54
2023-06-13T10:00:18.215Z,24.59
2023-06-13T10:02:48.553Z,24.71
2023-06-13T10:05:17.616Z,24.88
2023-06-13T10:07:46.938Z,25.08
2023-06-13T10:10:16.901Z,25.29
2023-06-13T10:12:50.118Z,25.56
2023-06-13T10:15:22.011Z,25.89
2023-06-13T10:17:52.360Z,26.11
2023-06-13T10:20:21.858Z,26.40
2023-06-13T10:22:50.939Z,26.74
2023-06-13T10:25:20.874Z,27.02
2023-06-13T10:27:52.672Z,27.15
2023-06-13T10:30:34.818Z,27.37
2023-06-13T10:33:30.391Z,27.67
2023-06-13T10:36:12.751Z,27.89
2023-06-13T10:39:01.085Z,28.05
2023-06-13T10:41:40.415Z,28.03
2023-06-13T10:44:13.308Z,28.17
2023-06-13T10:46:42.660Z,28.32
2023-06-13T10:49:17.081Z,28.40
2023-06-13T10:51:46.669Z,28.49
2023-06-13T10:54:16.168Z,28.55
2023-06-13T10:56:46.172Z,28.66
2023-06-13T10:59:16.629Z,28.78
2023-06-13T11:01:46.156Z,28.83
2023-06-13T11:04:16.197Z,29.05
2023-06-13T11:06:45.906Z,29.09
2023-06-13T11:09:19.413Z,29.21
2023-06-13T11:11:49.924Z,29.14
2023-06-13T11:14:21.237Z,29.12
2023-06-13T11:16:50.123Z,29.19
2023-06-13T11:19:20.503Z,29.33
2023-06-13T11:21:51.823Z,29.33
2023-06-13T11:24:21.189Z,29.36
2023-06-13T11:26:50.166Z,29.31
2023-06-13T11:29:19.416Z,29.35
2023-06-13T11:31:52.659Z,29.36
2023-06-13T11:34:25.683Z,29.44
2023-06-13T11:36:57.345Z,29.55
2023-06-13T11:39:28.574Z,29.54
2023-06-13T11:41:58.342Z,29.45
2023-06-13T11:44:27.339Z,29.35
2023-06-13T11:46:56.804Z,29.48
2023-06-13T11:49:27.624Z,29.67
2023-06-13T11:51:56.949Z,29.68
2023-06-13T11:54:31.605Z,29.66
2023-06-13T11:57:00.595Z,29.76
2023-06-13T11:59:29.592Z,30.07
2023-06-13T12:01:58.727Z,30.23
2023-06-13T12:04:28.394Z,30.38
2023-06-13T12:06:58.989Z,30.68
2023-06-13T12:09:29.560Z,31.01
2023-06-13T12:11:58.582Z,31.25
2023-06-13T12:14:30.081Z,31.16
2023-06-13T12:17:00.597Z,31.08
2023-06-13T12:19:29.767Z,31.22
2023-06-13T12:22:01.175Z,31.22
2023-06-13T12:24:30.192Z,31.27
2023-06-13T12:26:59.239Z,31.53
2023-06-13T12:29:29.046Z,31.86
2023-06-13T12:32:04.279Z,32.03
2023-06-13T12:34:36.052Z,32.25
2023-06-13T12:37:06.109Z,32.45
2023-06-13T12:39:36.307Z,32.52
2023-06-13T12:42:07.436Z,32.77
2023-06-13T12:44:37.376Z,32.95
2023-06-13T12:47:07.541Z,32.83
2023-06-13T12:49:41.132Z,32.73
2023-06-13T12:52:17.730Z,32.86
2023-06-13T12:54:46.585Z,33.07
2023-06-13T12:57:18.892Z,32.96
2023-06-13T12:59:53.675Z,32.69
2023-06-13T13:02:24.380Z,32.70
2023-06-13T13:05:01.059Z,32.75
2023-06-13T13:07:31.173Z,32.73
2023-06-13T13:10:00.894Z,32.66
2023-06-13T13:12:30.354Z,32.79
2023-06-13T13:15:01.688Z,33.13
2023-06-13T13:17:31.105Z,33.26
2023-06-13T13:19:59.965Z,33.27
2023-06-13T13:22:28.948Z,33.30
2023-06-13T13:24:57.779Z,33.28
2023-06-13T13:27:27.107Z,33.13
2023-06-13T13:29:58.269Z,32.76
2023-06-13T13:32:29.081Z,32.59
2023-06-13T13:34:58.097Z,32.64
2023-06-13T13:37:26.990Z,32.56
2023-06-13T13:39:55.927Z,32.87
2023-06-13T13:42:26.453Z,33.17
2023-06-13T13:44:55.672Z,33.29
2023-06-13T13:47:24.741Z,33.54
2023-06-13T13:49:55.004Z,33.79
2023-06-13T13:52:24.367Z,33.95
2023-06-13T13:54:53.466Z,33.96
2023-06-13T13:57:22.429Z,33.97
2023-06-13T13:59:51.688Z,33.79
2023-06-13T14:02:20.655Z,33.77
2023-06-13T14:04:49.477Z,33.61
2023-06-13T14:07:18.310Z,33.57
2023-06-13T14:09:47.119Z,33.65
2023-06-13T14:12:16.210Z,33.86
2023-06-13T14:14:45.073Z,33.86
2023-06-13T14:17:14.425Z,33.96
2023-06-13T14:19:43.924Z,34.11
2023-06-13T14:22:12.865Z,34.12
2023-06-13T14:24:41.797Z,34.18
2023-06-13T14:27:11.335Z,34.43
2023-06-13T14:29:40.394Z,34.51
2023-06-13T14:32:10.243Z,34.51
2023-06-13T14:34:39.540Z,34.64
2023-06-13T14:37:08.512Z,34.61
2023-06-13T14:39:37.517Z,34.40
2023-06-13T14:42:06.870Z,34.45
2023-06-13T14:44:35.754Z,34.65
2023-06-13T14:47:05.804Z,34.82
2023-06-13T14:49:34.781Z,34.94
2023-06-13T14:52:04.435Z,34.97
2023-06-13T14:54:33.354Z,34.85
2023-06-13T14:57:02.969Z,34.94
2023-06-13T14:59:33.119Z,34.98
2023-06-13T15:02:02.079Z,34.84
2023-06-13T15:04:30.955Z,34.75
2023-06-13T15:06:59.916Z,34.68
2023-06-13T15:09:30.114Z,34.66
2023-06-13T15:12:00.406Z,34.69
2023-06-13T15:14:29.429Z,34.66
2023-06-13T15:16:58.365Z,34.45
2023-06-13T15:19:27.411Z,34.33
2023-06-13T15:21:56.440Z,34.31
2023-06-13T15:24:26.600Z,34.28
2023-06-13T15:26:55.705Z,34.16
2023-06-13T15:29:24.588Z,34.06
2023-06-13T15:31:54.677Z,34.02
2023-06-13T15:34:25.929Z,34.00
2023-06-13T15:36:55.117Z,34.19
2023-06-13T15:39:25.418Z,34.17
2023-06-13T15:41:54.936Z,33.90
2023-06-13T15:44:24.037Z,33.86
2023-06-13T15:46:53.518Z,33.94
2023-06-13T15:49:23.971Z,34.00
2023-06-13T15:51:52.934Z,34.04
2023-06-13T15:54:21.880Z,33.96
2023-06-13T15:56:50.874Z,33.87
2023-06-13T15:59:19.946Z,33.60
2023-06-13T16:01:48.815Z,33.27
2023-06-13T16:04:18.141Z,32.98
2023-06-13T16:06:47.309Z,32.84
2023-06-13T16:09:16.486Z,32.67
2023-06-13T16:11:47.352Z,32.54
2023-06-13T16:14:16.476Z,32.39
2023-06-13T16:16:46.769Z,32.42
2023-06-13T16:19:16.937Z,32.33
2023-06-13T16:21:46.197Z,32.03
2023-06-13T16:24:15.198Z,31.69
2023-06-13T16:26:44.134Z,31.42
2023-06-13T16:29:13.044Z,31.13
2023-06-13T16:31:43.759Z,30.68
2023-06-13T16:34:13.595Z,30.17
2023-06-13T16:36:43.281Z,29.66
2023-06-13T16:39:12.366Z,29.24
2023-06-13T16:41:41.235Z,29.00
2023-06-13T16:44:10.176Z,28.69
2023-06-13T16:46:39.571Z,28.31
2023-06-13T16:49:08.482Z,28.11
2023-06-13T16:51:37.556Z,27.88
2023-06-13T16:54:06.525Z,27.69
2023-06-13T16:56:35.455Z,27.55
2023-06-13T16:59:04.297Z,27.37
2023-06-13T17:01:33.588Z,27.19
2023-06-13T17:04:02.734Z,27.02
2023-06-13T17:06:31.695Z,26.77
2023-06-13T17:09:01.579Z,26.58
2023-06-13T17:11:30.526Z,26.51
2023-06-13T17:14:03.047Z,26.43
2023-06-13T17:16:34.262Z,26.35
2023-06-13T17:19:03.940Z,26.22
2023-06-13T17:21:33.891Z,26.06
2023-06-13T17:24:04.787Z,26.01
2023-06-13T17:26:35.276Z,26.00
2023-06-13T17:29:04.120Z,25.96
2023-06-13T17:31:33.248Z,25.90
2023-06-13T17:34:02.218Z,25.86
2023-06-13T17:36:31.313Z,25.82
2023-06-13T17:39:00.262Z,25.74
2023-06-13T17:41:29.263Z,25.69
2023-06-13T17:43:58.468Z,25.65
2023-06-13T17:46:27.997Z,25.60
2023-06-13T17:48:56.984Z,25.57
2023-06-13T17:51:26.371Z,25.52
2023-06-13T17:53:55.681Z,25.45
2023-06-13T17:56:24.703Z,25.42
2023-06-13T17:58:53.756Z,25.38
2023-06-13T18:01:22.825Z,25.35
2023-06-13T18:03:52.060Z,25.33
2023-06-13T18:06:22.676Z,25.30
2023-06-13T18:08:51.744Z,25.27
2023-06-13T18:11:20.653Z,25.22
2023-06-13T18:13:49.535Z,25.18
2023-06-13T18:16:18.483Z,25.15
2023-06-13T18:18:47.352Z,25.15
2023-06-13T18:21:16.354Z,25.13
2023-06-13T18:23:45.431Z,25.09
2023-06-13T18:26:14.390Z,25.03
2023-06-13T18:28:43.321Z,25.01
2023-06-13T18:31:12.365Z,24.96
2023-06-13T18:33:41.597Z,24.93
2023-06-13T18:36:10.523Z,24.93
2023-06-13T18:38:39.529Z,25.01
2023-06-13T18:41:08.554Z,25.16
2023-06-13T18:43:37.577Z,25.30
2023-06-13T18:46:06.589Z,25.32
2023-06-13T18:48:35.665Z,25.26
2023-06-13T18:51:04.999Z,25.13
2023-06-13T18:53:33.894Z,24.98
2023-06-13T18:56:02.846Z,24.83
2023-06-13T18:58:31.932Z,24.66
2023-06-13T19:01:01.039Z,24.49
2023-06-13T19:03:30.068Z,24.32
2023-06-13T19:05:59.314Z,24.14
2023-06-13T19:08:28.443Z,23.96
2023-06-13T19:10:57.546Z,23.78
2023-06-13T19:13:26.560Z,23.59
2023-06-13T19:15:55.837Z,23.39
2023-06-13T19:18:25.857Z,23.17
2023-06-13T19:20:54.846Z,22.94
2023-06-13T19:23:23.729Z,22.72
2023-06-13T19:25:55.040Z,22.48
2023-06-13T19:28:24.204Z,22.23
2023-06-13T19:30:53.311Z,22.01
2023-06-13T19:33:22.393Z,21.78
2023-06-13T19:35:51.380Z,21.57
2023-06-13T19:38:20.613Z,21.37
2023-06-13T19:40:49.863Z,21.17
2023-06-13T19:43:18.850Z,20.99
2023-06-13T19:45:48.827Z,20.80
2023-06-13T19:48:18.125Z,20.64
2023-06-13T19:50:49.664Z,20.47
2023-06-13T19:53:19.669Z,20.32
2023-06-13T19:55:49.403Z,20.19
2023-06-13T19:58:20.394Z,20.06
2023-06-13T20:00:49.523Z,19.93
2023-06-13T20:03:19.423Z,19.80
2023-06-13T20:05:48.591Z,19.68
2023-06-13T20:08:17.679Z,19.56
2023-06-13T20:10:47.752Z,19.43
2023-06-13T20:13:17.353Z,19.31
2023-06-13T20:15:46.629Z,19.19
2023-06-13T20:18:16.216Z,19.08
2023-06-13T20:20:46.137Z,18.97
2023-06-13T20:23:15.266Z,18.85
2023-06-13T20:25:44.412Z,18.75
2023-06-13T20:28:15.642Z,18.65
2023-06-13T20:30:44.690Z,18.54
2023-06-13T20:33:13.886Z,18.44
2023-06-13T20:35:42.924Z,18.36
2023-06-13T20:38:12.048Z,18.25
2023-06-13T20:40:41.287Z,18.14
2023-06-13T20:43:12.073Z,18.06
2023-06-13T20:45:41.448Z,17.97
2023-06-13T20:48:10.866Z,17.88
2023-06-13T20:50:40.552Z,17.80
2023-06-13T20:53:09.619Z,17.72
2023-06-13T20:55:38.520Z,17.64
2023-06-13T20:58:08.110Z,17.58
2023-06-13T21:00:37.884Z,17.52
2023-06-13T21:03:07.332Z,17.46
2023-06-13T21:05:36.653Z,17.41
2023-06-13T21:08:06.998Z,17.36
2023-06-13T21:10:35.926Z,17.30
2023-06-13T21:13:05.015Z,17.24
2023-06-13T21:15:34.598Z,17.17
2023-06-13T21:18:04.554Z,17.11
2023-06-13T21:20:33.687Z,17.05
2023-06-13T21:23:02.708Z,16.97
2023-06-13T21:25:31.786Z,16.90
2023-06-13T21:28:00.873Z,16.84
2023-06-13T21:30:29.813Z,16.79
2023-06-13T21:32:58.898Z,16.75
2023-06-13T21:35:28.045Z,16.74
2023-06-13T21:37:57.869Z,16.72
2023-06-13T21:40:26.854Z,16.70
2023-06-13T21:42:56.915Z,16.69
2023-06-13T21:45:32.281Z,16.70
2023-06-13T21:48:02.785Z,16.74
2023-06-13T21:50:32.760Z,16.77
2023-06-13T21:53:01.729Z,16.80
2023-06-13T21:55:30.774Z,16.84
2023-06-13T21:57:59.657Z,16.88
2023-06-13T22:00:28.674Z,16.94
2023-06-13T22:02:57.672Z,17.02
2023-06-13T22:05:27.590Z,17.07
2023-06-13T22:07:58.493Z,17.11
2023-06-13T22:10:28.643Z,17.17
2023-06-13T22:12:57.932Z,17.22
2023-06-13T22:15:26.791Z,17.27
2023-06-13T22:17:58.128Z,17.30
2023-06-13T22:20:27.066Z,17.33
2023-06-13T22:22:59.010Z,17.34
2023-06-13T22:25:28.532Z,17.36
2023-06-13T22:27:57.953Z,17.36
2023-06-13T22:30:26.956Z,17.37
2023-06-13T22:32:56.395Z,17.40
2023-06-13T22:35:25.805Z,17.42
2023-06-13T22:37:54.797Z,17.45
2023-06-13T22:40:23.742Z,17.46
2023-06-13T22:42:52.732Z,17.45
2023-06-13T22:45:23.178Z,17.47
2023-06-13T22:47:53.572Z,17.48
2023-06-13T22:50:22.831Z,17.48
2023-06-13T22:52:53.968Z,17.47
2023-06-13T22:55:23.878Z,17.46
2023-06-13T22:57:52.844Z,17.45
2023-06-13T23:00:21.954Z,17.46
2023-06-13T23:02:52.582Z,17.46
2023-06-13T23:05:21.659Z,17.45
2023-06-13T23:07:50.662Z,17.44
2023-06-13T23:10:19.655Z,17.43
2023-06-13T23:12:48.575Z,17.43
2023-06-13T23:15:17.577Z,17.42
2023-06-13T23:17:46.630Z,17.40
2023-06-13T23:20:17.060Z,17.38
2023-06-13T23:22:47.617Z,17.33
2023-06-13T23:25:22.321Z,17.27
2023-06-13T23:27:51.402Z,17.22
2023-06-13T23:30:21.037Z,17.19
2023-06-13T23:32:52.448Z,17.17
2023-06-13T23:35:23.745Z,17.15
2023-06-13T23:37:52.773Z,17.14
2023-06-13T23:40:21.792Z,17.13
2023-06-13T23:42:51.097Z,17.11
2023-06-13T23:45:20.119Z,17.11
2023-06-13T23:47:49.100Z,17.09
2023-06-13T23:50:18.926Z,17.06
2023-06-13T23:52:47.782Z,17.05
2023-06-13T23:55:17.419Z,17.04
2023-06-13T23:57:46.346Z,17.05
